Time;durP1;ratioP1;P1;durP2;ratioP2;P2;SDS_P1;SDS_P2;PMS_P1;PMS_P2;Temp;Humidity;BMP_temperature;BMP_pressure;BME280_temperature;BME280_humidity;BME280_pressure;Samples;Min_cycle;Max_cycle;Signal;HPM_P1;HPM_P2
2023/09/15 00:01:08;;;;;;;15.07;4.85;;;15.10;99.90;;;;;;4988905;28;20066;-78
2023/09/15 00:03:35;;;;;;;9.63;4.00;;;15.10;99.90;;;;;;4988287;28;20042;-78
2023/09/15 00:06:01;;;;;;;10.50;3.65;;;15.00;99.90;;;;;;4987968;28;20050;-78
2023/09/15 00:08:27;;;;;;;6.13;3.78;;;15.00;99.90;;;;;;4988128;28;20057;-78
2023/09/15 00:10:52;;;;;;;7.72;3.88;;;15.00;99.90;;;;;;4988039;28;20511;-78
2023/09/15 00:13:18;;;;;;;7.57;3.85;;;14.80;99.90;;;;;;4987950;28;20035;-78
2023/09/15 00:15:44;;;;;;;7.05;3.63;;;14.80;99.90;;;;;;4987371;28;20581;-78
2023/09/15 00:18:09;;;;;;;9.85;4.03;;;15.00;99.90;;;;;;4991453;28;20502;-78
2023/09/15 00:20:35;;;;;;;9.48;4.15;;;15.00;99.90;;;;;;4975530;28;20042;-78
2023/09/15 00:23:02;;;;;;;7.32;4.63;;;15.00;99.90;;;;;;4991588;28;20481;-78
2023/09/15 00:25:29;;;;;;;9.02;4.05;;;15.10;99.90;;;;;;4974958;28;20446;-78
2023/09/15 00:28:00;;;;;;;6.78;4.35;;;15.00;99.90;;;;;;4991094;28;20035;-78
2023/09/15 00:30:27;;;;;;;7.53;4.32;;;14.90;99.90;;;;;;4991312;28;20035;-78
2023/09/15 00:32:54;;;;;;;8.98;3.80;;;15.90;99.90;;;;;;4975213;28;20043;-78
2023/09/15 00:35:22;;;;;;;8.27;4.25;;;14.80;99.90;;;;;;4991148;28;20046;-78
2023/09/15 00:37:50;;;;;;;7.28;3.75;;;15.00;99.90;;;;;;4975215;28;20065;-78
2023/09/15 00:40:18;;;;;;;10.23;4.35;;;14.90;99.90;;;;;;4975144;28;20130;-78
2023/09/15 00:42:45;;;;;;;10.57;4.10;;;15.00;99.90;;;;;;4975133;28;20399;-78
2023/09/15 00:45:15;;;;;;;9.48;5.20;;;14.90;99.90;;;;;;4991154;28;20130;-78
2023/09/15 00:47:46;;;;;;;7.75;3.97;;;14.90;99.90;;;;;;4974814;28;20042;-78
2023/09/15 00:50:17;;;;;;;8.30;3.80;;;14.70;99.90;;;;;;4991458;28;20054;-78
2023/09/15 00:52:54;;;;;;;7.85;4.45;;;14.90;99.90;;;;;;4991222;28;20039;-78
2023/09/15 00:55:24;;;;;;;13.40;4.82;;;14.80;99.90;;;;;;4990901;28;20069;-78
2023/09/15 00:57:51;;;;;;;9.02;3.80;;;14.80;99.90;;;;;;4990660;28;20086;-78
2023/09/15 01:00:19;;;;;;;7.72;4.20;;;14.70;99.90;;;;;;4974635;28;20046;-78
2023/09/15 01:02:46;;;;;;;7.85;3.88;;;;;;;;;;4991065;28;20214;-78
2023/09/15 01:05:19;;;;;;;9.73;4.35;;;;;;;;;;4974378;28;20115;-78
2023/09/15 01:07:45;;;;;;;;;;;;;;;;;;4974544;28;20074;-78
2023/09/15 01:10:12;;;;;;;9.13;3.83;;;;;;;;;;4958299;28;20341;-78
2023/09/15 01:12:39;;;;;;;6.57;3.78;;;;;;;;;;4974478;28;20046;-78
2023/09/15 01:15:05;;;;;;;11.15;4.05;;;;;;;;;;4974316;28;20047;-78
2023/09/15 01:17:37;;;;;;;7.50;4.07;;;;;;;;;;4974006;28;20038;-78
2023/09/15 01:20:13;;;;;;;7.78;3.90;;;;;;;;;;4974532;28;20046;-77
2023/09/15 01:22:51;;;;;;;12.57;4.18;;;14.50;99.90;;;;;;4974371;28;20053;-78
2023/09/15 01:25:47;;;;;;;9.00;4.00;;;14.50;99.90;;;;;;4990842;28;20085;-78
2023/09/15 01:28:13;;;;;;;8.13;3.67;;;;;;;;;;4990053;28;20414;-78
2023/09/15 01:30:39;;;;;;;10.57;3.97;;;14.50;99.90;;;;;;4974160;28;20043;-78
2023/09/15 01:33:09;;;;;;;10.95;4.30;;;14.40;99.90;;;;;;4974303;28;20075;-78
2023/09/15 01:35:34;;;;;;;5.80;3.83;;;14.40;99.90;;;;;;4990190;28;20118;-78
2023/09/15 01:38:00;;;;;;;4.75;3.40;;;14.30;99.90;;;;;;4990836;28;20137;-78
2023/09/15 01:40:26;;;;;;;8.20;3.60;;;14.40;99.90;;;;;;4957936;28;20046;-78
2023/09/15 01:42:54;;;;;;;7.90;4.38;;;14.40;99.90;;;;;;4990171;28;20042;-78
2023/09/15 01:45:20;;;;;;;8.02;3.30;;;14.30;99.90;;;;;;4989887;28;20078;-78
2023/09/15 01:47:47;;;;;;;8.20;3.80;;;14.30;99.90;;;;;;4989861;28;20138;-78
2023/09/15 01:50:14;;;;;;;6.82;4.05;;;14.40;99.90;;;;;;4990059;28;20046;-78
2023/09/15 01:52:41;;;;;;;9.05;4.20;;;14.20;99.90;;;;;;4990245;28;20054;-77
2023/09/15 01:55:08;;;;;;;8.55;3.67;;;14.20;99.90;;;;;;4990231;28;20069;-78
2023/09/15 01:57:33;;;;;;;7.35;3.85;;;14.20;99.90;;;;;;4989801;28;20047;-78
2023/09/15 01:59:59;;;;;;;6.70;3.58;;;14.30;99.90;;;;;;4989685;28;20062;-78
2023/09/15 02:02:25;;;;;;;7.70;3.67;;;14.20;99.90;;;;;;4989923;28;20071;-78
2023/09/15 02:04:50;;;;;;;7.57;4.40;;;14.10;99.90;;;;;;4989595;28;20046;-78
2023/09/15 02:07:16;;;;;;;7.88;4.25;;;14.10;99.90;;;;;;4989322;28;20387;-78
2023/09/15 02:09:41;;;;;;;8.63;3.80;;;14.30;99.90;;;;;;4989537;28;20034;-78
2023/09/15 02:12:07;;;;;;;5.97;3.50;;;14.10;99.90;;;;;;4973443;28;20039;-78
2023/09/15 02:14:34;;;;;;;5.88;3.50;;;14.10;99.90;;;;;;4989255;28;20121;-78
2023/09/15 02:17:00;;;;;;;6.90;3.63;;;14.20;99.90;;;;;;4989344;28;20491;-78
2023/09/15 02:19:26;;;;;;;10.02;3.70;;;14.10;99.90;;;;;;4989654;28;20037;-78
2023/09/15 02:21:51;;;;;;;6.45;3.67;;;13.90;99.90;;;;;;4973227;28;20035;-78
2023/09/15 02:24:17;;;;;;;7.22;3.58;;;14.10;99.90;;;;;;4989576;28;20046;-78
2023/09/15 02:26:43;;;;;;;6.75;3.67;;;13.90;99.90;;;;;;4989172;28;20046;-78
2023/09/15 02:29:09;;;;;;;6.78;3.47;;;;;;;;;;4989037;28;20039;-78
2023/09/15 02:31:35;;;;;;;11.02;3.65;;;14.20;99.90;;;;;;4972983;28;20529;-78
2023/09/15 02:34:00;;;;;;;6.53;3.55;;;14.10;99.90;;;;;;4972873;28;20049;-78
2023/09/15 02:36:27;;;;;;;6.75;4.13;;;14.10;99.90;;;;;;4972782;28;20458;-78
2023/09/15 02:38:56;;;;;;;7.47;4.18;;;13.90;99.90;;;;;;4988313;28;20482;-78
2023/09/15 02:41:22;;;;;;;8.32;4.05;;;13.90;99.90;;;;;;4989111;28;20042;-78
2023/09/15 02:43:48;;;;;;;6.30;4.15;;;14.00;99.90;;;;;;4989329;28;20046;-78
2023/09/15 02:46:13;;;;;;;9.57;4.38;;;13.90;99.90;;;;;;4972625;28;20042;-78
2023/09/15 02:48:41;;;;;;;8.70;3.45;;;13.90;99.90;;;;;;4988725;28;20414;-78
2023/09/15 02:51:07;;;;;;;8.18;4.45;;;13.90;99.90;;;;;;4988831;28;20034;-78
2023/09/15 02:53:33;;;;;;;7.53;3.83;;;14.00;99.90;;;;;;4972681;28;20046;-78
2023/09/15 02:56:00;;;;;;;8.50;3.95;;;14.00;99.90;;;;;;4988489;28;20611;-78
2023/09/15 02:58:27;;;;;;;5.70;3.92;;;13.90;99.90;;;;;;4988477;28;20057;-78
2023/09/15 03:00:53;;;;;;;6.90;4.30;;;;;;;;;;4988720;28;20050;-78
2023/09/15 03:03:25;;;;;;;7.38;4.05;;;;;;;;;;4972453;28;20133;-78
2023/09/15 03:06:06;;;;;;;15.13;4.68;;;13.70;99.90;;;;;;4972296;28;20043;-78
2023/09/15 03:08:33;;;;;;;8.38;4.18;;;13.80;99.90;;;;;;4988597;28;20383;-78
2023/09/15 03:10:59;;;;;;;7.88;3.80;;;13.80;99.90;;;;;;4972225;28;20045;-78
2023/09/15 03:13:25;;;;;;;10.15;4.07;;;13.80;99.90;;;;;;4972448;28;20035;-78
2023/09/15 03:15:50;;;;;;;16.42;4.53;;;13.70;99.90;;;;;;4988571;28;20043;-78
2023/09/15 03:18:17;;;;;;;8.63;3.85;;;13.70;99.90;;;;;;4988164;28;20042;-78
2023/09/15 03:20:43;;;;;;;7.85;4.05;;;13.70;99.90;;;;;;4988231;28;20059;-78
2023/09/15 03:23:09;;;;;;;6.78;3.42;;;13.80;99.90;;;;;;4988406;28;20510;-78
2023/09/15 03:25:34;;;;;;;10.45;4.68;;;13.60;99.90;;;;;;4988002;28;20049;-78
2023/09/15 03:28:00;;;;;;;6.55;3.80;;;;;;;;;;4988149;28;20035;-78
2023/09/15 03:30:26;;;;;;;11.30;4.30;;;13.40;99.90;;;;;;4972031;28;20045;-78
2023/09/15 03:32:52;;;;;;;10.85;3.97;;;;;;;;;;4988203;28;20466;-78
2023/09/15 03:35:18;;;;;;;9.02;4.70;;;;;;;;;;4972087;28;20524;-78
2023/09/15 03:37:45;;;;;;;7.55;3.95;;;13.40;99.90;;;;;;4971732;28;20137;-78
2023/09/15 03:40:11;;;;;;;4.57;3.78;;;;;;;;;;4987957;28;20054;-78
2023/09/15 03:42:38;;;;;;;6.85;4.32;;;13.50;99.90;;;;;;4971993;28;20039;-78
2023/09/15 03:45:08;;;;;;;8.05;4.13;;;13.40;99.90;;;;;;4987915;28;20074;-78
2023/09/15 03:47:34;;;;;;;7.18;3.80;;;13.50;99.90;;;;;;4971773;28;20121;-78
2023/09/15 03:50:00;;;;;;;7.15;4.15;;;13.60;99.90;;;;;;4987744;28;20472;-78
2023/09/15 03:52:26;;;;;;;8.52;3.88;;;13.70;99.90;;;;;;4987937;28;20169;-78
2023/09/15 03:54:51;;;;;;;8.13;4.32;;;13.60;99.90;;;;;;4987924;28;20133;-78
2023/09/15 03:57:17;;;;;;;7.07;3.75;;;13.60;99.90;;;;;;4987569;28;20387;-78
2023/09/15 03:59:42;;;;;;;6.50;4.25;;;13.60;99.90;;;;;;4987894;28;20034;-78
2023/09/15 04:02:08;;;;;;;12.20;4.88;;;13.50;99.90;;;;;;4988101;28;20047;-78
2023/09/15 04:04:34;;;;;;;7.63;4.10;;;13.60;99.90;;;;;;4987825;28;20189;-78
2023/09/15 04:06:59;;;;;;;5.47;3.88;;;13.60;99.90;;;;;;4971445;28;20062;-78
2023/09/15 04:09:25;;;;;;;7.72;4.00;;;13.40;99.90;;;;;;4987779;28;20038;-78
2023/09/15 04:11:51;;;;;;;9.40;4.10;;;13.60;99.90;;;;;;4955596;28;20047;-78
2023/09/15 04:14:18;;;;;;;6.93;3.55;;;;;;;;;;4987996;28;20514;-78
2023/09/15 04:16:43;;;;;;;7.90;4.38;;;13.40;99.90;;;;;;4971482;28;20042;-78
2023/09/15 04:19:09;;;;;;;6.38;3.55;;;13.50;99.90;;;;;;4987936;28;20380;-78
2023/09/15 04:21:38;;;;;;;8.50;3.92;;;13.40;99.90;;;;;;4987745;28;20042;-78
2023/09/15 04:24:05;;;;;;;8.57;4.03;;;13.30;99.90;;;;;;4988065;28;20409;-78
2023/09/15 04:26:30;;;;;;;7.70;3.80;;;13.40;99.90;;;;;;4987702;28;20049;-78
2023/09/15 04:28:58;;;;;;;6.55;3.88;;;13.40;99.90;;;;;;4987544;28;20031;-78
2023/09/15 04:31:23;;;;;;;8.20;3.67;;;13.20;99.90;;;;;;4987644;28;20038;-78
2023/09/15 04:33:49;;;;;;;8.80;4.18;;;13.30;99.90;;;;;;4971467;28;20042;-78
2023/09/15 04:36:16;;;;;;;11.23;3.90;;;;;;;;;;4987436;28;20089;-78
2023/09/15 04:38:42;;;;;;;6.63;3.65;;;13.40;99.90;;;;;;4971703;28;20187;-78
2023/09/15 04:41:08;;;;;;;11.50;4.97;;;;;;;;;;4987873;28;20076;-78
2023/09/15 04:43:34;;;;;;;8.93;3.80;;;13.30;99.90;;;;;;4971404;28;20082;-78
2023/09/15 04:46:00;;;;;;;6.82;3.80;;;;;;;;;;4971075;28;20101;-78
2023/09/15 04:48:26;;;;;;;6.93;3.90;;;;;;;;;;4971355;28;20081;-78
2023/09/15 04:50:52;;;;;;;6.20;3.58;;;;;;;;;;4971313;28;20054;-77
2023/09/15 04:53:20;;;;;;;10.35;3.88;;;13.10;99.90;;;;;;4971285;28;20042;-78
2023/09/15 04:55:48;;;;;;;6.10;3.90;;;13.20;99.90;;;;;;4987676;28;20046;-77
2023/09/15 04:58:13;;;;;;;4.88;2.92;;;13.20;99.90;;;;;;4987212;28;20050;-78
2023/09/15 05:00:40;;;;;;;11.20;3.78;;;13.30;99.90;;;;;;4971318;28;20418;-78
2023/09/15 05:03:08;;;;;;;7.00;4.25;;;;;;;;;;4989303;28;20051;-78
2023/09/15 05:05:34;;;;;;;8.90;4.40;;;13.10;99.90;;;;;;4974594;28;20089;-78
2023/09/15 05:08:00;;;;;;;10.18;4.13;;;13.10;99.90;;;;;;4990981;28;20050;-78
2023/09/15 05:10:26;;;;;;;7.68;3.63;;;13.20;99.90;;;;;;4975143;28;20035;-78
2023/09/15 05:12:51;;;;;;;11.73;3.65;;;13.30;99.90;;;;;;4974892;28;20498;-78
2023/09/15 05:15:17;;;;;;;8.88;3.55;;;;;;;;;;4991041;28;20046;-77
2023/09/15 05:17:44;;;;;;;8.85;3.72;;;13.00;99.90;;;;;;4971716;28;20412;-78
2023/09/15 05:20:10;;;;;;;7.25;4.28;;;13.00;99.90;;;;;;4982819;28;20043;-78
2023/09/15 05:22:36;;;;;;;6.88;3.42;;;13.40;99.90;;;;;;4985217;28;20102;-77
2023/09/15 05:25:04;;;;;;;6.78;4.32;;;13.30;99.90;;;;;;4962012;28;20043;-77
2023/09/15 05:27:31;;;;;;;8.40;3.80;;;13.20;99.90;;;;;;4961994;28;20096;-77
2023/09/15 05:29:58;;;;;;;5.03;3.50;;;13.30;99.90;;;;;;5003826;28;20038;-78
2023/09/15 05:32:24;;;;;;;7.63;3.70;;;;;;;;;;4993378;28;20061;-77
2023/09/15 05:34:50;;;;;;;9.75;4.35;;;;;;;;;;4969779;28;20042;-78
2023/09/15 05:37:15;;;;;;;10.18;3.85;;;13.30;99.90;;;;;;4971919;28;20045;-77
2023/09/15 05:39:41;;;;;;;6.60;3.80;;;;;;;;;;4955196;28;20030;-78
2023/09/15 05:42:08;;;;;;;9.65;3.53;;;13.40;99.90;;;;;;4970634;28;20031;-77
2023/09/15 05:44:34;;;;;;;6.53;3.47;;;;;;;;;;4986546;28;20038;-77
2023/09/15 05:47:00;;;;;;;5.10;3.38;;;13.50;99.90;;;;;;4970025;28;20611;-77
2023/09/15 05:49:26;;;;;;;7.28;3.70;;;;;;;;;;4954262;28;20525;-78
2023/09/15 05:51:52;;;;;;;7.60;3.60;;;13.50;99.90;;;;;;4986627;28;20042;-78
2023/09/15 05:54:18;;;;;;;8.00;3.80;;;;;;;;;;4986303;28;20517;-78
2023/09/15 05:56:44;;;;;;;9.32;4.10;;;;;;;;;;4970320;28;20101;-78
2023/09/15 05:59:10;;;;;;;6.78;4.35;;;13.60;99.90;;;;;;4979776;28;20042;-78
2023/09/15 06:01:37;;;;;;;9.40;4.18;;;;;;;;;;4986183;28;20518;-77
2023/09/15 06:04:05;;;;;;;7.90;4.35;;;;;;;;;;4970751;28;20125;-77
2023/09/15 06:06:31;;;;;;;7.80;3.88;;;13.50;99.90;;;;;;4973917;28;20510;-78
2023/09/15 06:08:57;;;;;;;7.55;3.65;;;;;;;;;;4985938;28;20039;-78
2023/09/15 06:11:22;;;;;;;10.63;3.83;;;13.60;99.90;;;;;;4969814;28;20565;-78
2023/09/15 06:13:48;;;;;;;9.23;4.65;;;13.80;99.90;;;;;;4954712;28;20039;-78
2023/09/15 06:16:14;;;;;;;8.35;4.10;;;;;;;;;;4954016;28;20569;-78
2023/09/15 06:18:40;;;;;;;11.50;3.97;;;;;;;;;;4968460;28;20422;-78
2023/09/15 06:21:06;;;;;;;7.75;4.05;;;;;;;;;;4971026;28;20034;-78
2023/09/15 06:23:32;;;;;;;8.60;4.30;;;;;;;;;;4970147;28;20057;-77
2023/09/15 06:25:58;;;;;;;6.25;3.30;;;13.90;99.90;;;;;;4991023;28;20039;-78
2023/09/15 06:28:24;;;;;;;6.47;3.67;;;;;;;;;;4978244;28;20039;-78
2023/09/15 06:30:50;;;;;;;6.43;3.78;;;14.10;99.90;;;;;;4962599;28;20038;-78
2023/09/15 06:33:16;;;;;;;12.15;3.42;;;14.40;99.90;;;;;;4989758;28;20045;-78
2023/09/15 06:35:43;;;;;;;8.57;3.78;;;;;;;;;;4988967;28;20043;-78
2023/09/15 06:38:10;;;;;;;7.60;3.15;;;14.40;99.90;;;;;;4972674;28;20054;-78
2023/09/15 06:40:36;;;;;;;7.80;3.70;;;14.40;99.90;;;;;;4989360;28;20575;-78
2023/09/15 06:43:06;;;;;;;5.97;3.28;;;14.50;99.90;;;;;;4989153;28;20046;-78
2023/09/15 06:45:33;;;;;;;7.03;3.00;;;14.50;99.90;;;;;;4989026;28;20061;-78
2023/09/15 06:47:59;;;;;;;8.02;3.67;;;14.60;99.90;;;;;;4988751;28;20049;-78
2023/09/15 06:50:25;;;;;;;7.97;3.38;;;14.50;99.90;;;;;;4988416;28;20039;-78
2023/09/15 06:52:50;;;;;;;9.55;3.65;;;14.50;99.90;;;;;;4953126;28;20487;-78
2023/09/15 06:55:16;;;;;;;10.40;4.20;;;14.90;99.90;;;;;;4963024;28;20156;-78
2023/09/15 06:57:42;;;;;;;7.35;3.20;;;;;;;;;;4953515;28;20130;-78
2023/09/15 07:00:09;;;;;;;7.53;3.60;;;14.80;99.90;;;;;;4963646;28;20490;-78
2023/09/15 07:02:34;;;;;;;9.00;3.30;;;15.00;99.90;;;;;;4954702;28;20030;-77
2023/09/15 07:05:00;;;;;;;7.13;3.67;;;15.00;99.90;;;;;;4980433;28;20101;-77
2023/09/15 07:07:26;;;;;;;9.50;3.75;;;15.00;99.90;;;;;;4989409;28;20102;-79
2023/09/15 07:09:52;;;;;;;7.82;3.60;;;15.10;99.90;;;;;;4958021;28;20050;-79
2023/09/15 07:12:17;;;;;;;5.40;3.17;;;15.10;99.90;;;;;;4990720;28;20031;-79
2023/09/15 07:14:43;;;;;;;4.78;3.45;;;15.30;99.90;;;;;;4989457;28;20042;-78
2023/09/15 07:17:09;;;;;;;8.93;3.70;;;;;;;;;;4956317;28;20387;-78
2023/09/15 07:19:35;;;;;;;7.55;3.72;;;;;;;;;;4972887;28;20153;-80
2023/09/15 07:22:01;;;;;;;7.50;3.70;;;;;;;;;;4974923;28;20070;-80
2023/09/15 07:24:26;;;;;;;8.90;3.63;;;15.50;99.90;;;;;;4975095;28;20671;-80
2023/09/15 07:26:52;;;;;;;9.52;3.78;;;;;;;;;;4958412;28;20197;-80
2023/09/15 07:29:18;;;;;;;6.40;3.60;;;15.80;99.90;;;;;;4975009;28;20050;-80
2023/09/15 07:31:44;;;;;;;7.63;3.63;;;15.70;99.90;;;;;;4991050;28;20041;-80
2023/09/15 07:34:10;;;;;;;5.65;3.60;;;;;;;;;;4958821;28;20039;-80
2023/09/15 07:36:35;;;;;;;8.30;3.67;;;16.00;99.90;;;;;;4975691;28;20499;-80
2023/09/15 07:39:04;;;;;;;8.63;3.65;;;16.00;99.90;;;;;;4959702;28;20187;-80
2023/09/15 07:41:30;;;;;;;7.18;3.35;;;16.00;99.90;;;;;;4991237;28;20047;-80
2023/09/15 07:44:00;;;;;;;9.02;3.58;;;16.10;99.90;;;;;;4991401;28;20038;-80
2023/09/15 07:46:26;;;;;;;7.45;3.45;;;16.20;99.90;;;;;;4991617;28;20423;-80
2023/09/15 07:48:52;;;;;;;8.30;2.83;;;16.30;99.90;;;;;;4991819;28;20048;-82
2023/09/15 07:51:19;;;;;;;11.00;3.50;;;16.50;99.90;;;;;;4992065;28;20039;-80
2023/09/15 07:53:45;;;;;;;9.13;4.03;;;16.60;99.90;;;;;;4959438;28;20170;-80
2023/09/15 07:56:10;;;;;;;9.85;4.10;;;16.70;99.90;;;;;;4991918;28;20082;-80
2023/09/15 07:58:36;;;;;;;7.35;3.40;;;16.60;99.90;;;;;;4991389;28;20520;-80
2023/09/15 08:01:02;;;;;;;6.68;3.42;;;16.90;99.90;;;;;;4975369;28;20047;-80
2023/09/15 08:03:27;;;;;;;9.68;3.72;;;16.90;99.90;;;;;;4992010;28;20110;-80
2023/09/15 08:05:53;;;;;;;7.90;3.88;;;17.00;99.90;;;;;;4992494;28;20064;-80
2023/09/15 08:08:19;;;;;;;8.60;4.05;;;;;;;;;;4959661;28;20046;-80
2023/09/15 08:10:46;;;;;;;9.90;3.50;;;17.30;99.90;;;;;;4976090;28;20499;-80
2023/09/15 08:13:11;;;;;;;5.97;3.30;;;17.40;99.90;;;;;;4991945;28;20051;-80
2023/09/15 08:15:37;;;;;;;7.18;3.17;;;17.60;99.90;;;;;;4991698;28;20068;-80
2023/09/15 08:18:03;;;;;;;9.25;4.47;;;17.40;99.90;;;;;;4959571;28;20038;-80
2023/09/15 08:20:28;;;;;;;5.90;3.00;;;17.40;99.90;;;;;;4960173;28;20047;-81
2023/09/15 08:22:54;;;;;;;8.00;3.03;;;17.60;99.90;;;;;;4959889;28;20042;-80
2023/09/15 08:25:20;;;;;;;8.45;3.97;;;17.70;99.90;;;;;;4959918;28;20046;-80
2023/09/15 08:27:46;;;;;;;7.45;4.38;;;17.80;99.90;;;;;;4991643;28;20545;-80
2023/09/15 08:30:13;;;;;;;6.22;3.45;;;18.00;99.90;;;;;;4960234;28;20126;-80
2023/09/15 08:32:39;;;;;;;7.10;3.50;;;18.10;99.90;;;;;;4993060;28;20047;-80
2023/09/15 08:35:05;;;;;;;11.80;3.70;;;18.10;99.90;;;;;;4992430;28;20043;-80
2023/09/15 08:37:31;;;;;;;9.77;3.30;;;18.10;99.90;;;;;;4993248;28;20109;-80
2023/09/15 08:39:57;;;;;;;7.55;3.25;;;18.20;99.90;;;;;;4995930;28;20042;-80
2023/09/15 08:42:26;;;;;;;7.72;4.07;;;18.30;99.90;;;;;;4996958;28;20043;-81
2023/09/15 08:44:53;;;;;;;7.45;3.58;;;18.40;99.90;;;;;;4997061;28;20046;-81
2023/09/15 08:47:23;;;;;;;7.28;3.38;;;18.60;99.90;;;;;;4964621;28;20043;-80
2023/09/15 08:49:51;;;;;;;7.03;3.25;;;19.30;99.90;;;;;;4998118;28;20035;-80
2023/09/15 08:52:17;;;;;;;7.95;3.50;;;18.70;99.90;;;;;;4999198;28;20062;-80
2023/09/15 08:54:45;;;;;;;9.07;3.35;;;19.00;99.90;;;;;;4997016;28;20380;-80
2023/09/15 08:57:11;;;;;;;4.88;2.95;;;18.70;99.90;;;;;;4997033;28;20038;-81
2023/09/15 08:59:37;;;;;;;5.43;3.08;;;19.10;99.90;;;;;;4998532;28;20174;-81
2023/09/15 09:02:03;;;;;;;7.28;3.88;;;19.00;99.90;;;;;;5000166;28;20398;-81
2023/09/15 09:04:29;;;;;;;6.35;3.80;;;19.10;99.90;;;;;;4984837;28;20050;-80
2023/09/15 09:06:58;;;;;;;6.72;3.22;;;19.10;99.90;;;;;;5003170;28;20047;-81
2023/09/15 09:09:24;;;;;;;6.93;4.20;;;20.00;99.90;;;;;;5002575;28;20084;-80
2023/09/15 09:11:50;;;;;;;6.72;3.90;;;19.30;99.90;;;;;;4987272;28;20159;-81
2023/09/15 09:14:15;;;;;;;5.88;3.47;;;19.10;99.90;;;;;;5003506;28;20062;-80
2023/09/15 09:16:46;;;;;;;6.22;3.65;;;19.30;99.90;;;;;;5003282;28;20047;-80
2023/09/15 09:19:12;;;;;;;5.43;3.97;;;20.20;99.90;;;;;;5005234;28;20053;-81
2023/09/15 09:21:38;;;;;;;7.03;4.07;;;19.60;99.90;;;;;;4976464;28;20101;-81
2023/09/15 09:24:05;;;;;;;7.40;4.03;;;20.80;99.90;;;;;;5008039;28;20070;-81
2023/09/15 09:26:31;;;;;;;10.52;4.22;;;19.70;99.90;;;;;;5007704;28;20085;-80
2023/09/15 09:28:57;;;;;;;7.13;3.65;;;19.80;99.90;;;;;;4977423;28;20038;-81
2023/09/15 09:31:27;;;;;;;9.75;4.03;;;19.90;99.90;;;;;;4972956;28;20379;-81
2023/09/15 09:33:58;;;;;;;6.20;4.10;;;20.70;99.90;;;;;;4995601;28;20517;-82
2023/09/15 09:36:24;;;;;;;13.15;6.22;;;20.10;99.90;;;;;;4961992;28;20047;-81
2023/09/15 09:38:52;;;;;;;10.15;4.72;;;20.10;99.90;;;;;;4994180;28;20065;-81
2023/09/15 09:41:24;;;;;;;8.15;4.20;;;20.40;99.90;;;;;;4994612;28;20471;-81
2023/09/15 09:43:50;;;;;;;8.48;5.95;;;21.10;99.90;;;;;;4962288;28;20072;-81
2023/09/15 09:46:19;;;;;;;7.90;4.80;;;20.30;99.90;;;;;;4994511;28;20047;-81
2023/09/15 09:48:46;;;;;;;10.73;4.70;;;20.40;99.90;;;;;;4995230;28;20041;-80
2023/09/15 09:51:13;;;;;;;8.38;4.57;;;20.50;99.90;;;;;;4994870;28;20046;-81
2023/09/15 09:53:39;;;;;;;9.52;6.38;;;20.40;99.90;;;;;;4994915;28;20415;-81
2023/09/15 09:56:05;;;;;;;10.73;5.25;;;21.30;99.90;;;;;;4994725;28;20050;-80
2023/09/15 09:58:36;;;;;;;8.60;5.45;;;20.90;99.90;;;;;;4963018;28;20442;-80
2023/09/15 10:01:06;;;;;;;10.15;5.30;;;20.80;99.90;;;;;;4962136;28;20043;-79
2023/09/15 10:03:34;;;;;;;7.40;5.22;;;20.90;99.90;;;;;;4995091;28;20054;-80
2023/09/15 10:06:00;;;;;;;7.53;4.70;;;21.50;99.90;;;;;;4959113;28;20047;-81
2023/09/15 10:08:27;;;;;;;9.43;5.20;;;20.80;99.90;;;;;;4978862;28;20093;-81
2023/09/15 10:10:53;;;;;;;9.88;4.95;;;21.10;99.90;;;;;;4994830;28;20125;-80
2023/09/15 10:13:19;;;;;;;8.02;4.70;;;21.10;99.90;;;;;;4995197;28;20042;-80
2023/09/15 10:15:46;;;;;;;12.32;4.57;;;21.10;99.90;;;;;;4994690;28;20035;-81
2023/09/15 10:18:14;;;;;;;8.20;5.18;;;21.10;99.90;;;;;;4994671;28;20050;-80
2023/09/15 10:20:45;;;;;;;6.70;4.05;;;21.00;99.90;;;;;;4995504;28;20046;-81
2023/09/15 10:23:14;;;;;;;11.70;4.63;;;20.90;99.90;;;;;;4979134;28;20030;-80
2023/09/15 10:25:45;;;;;;;8.07;3.92;;;21.50;99.90;;;;;;4996666;28;20047;-81
2023/09/15 10:28:11;;;;;;;7.05;3.83;;;21.50;99.90;;;;;;4996631;28;20035;-81
2023/09/15 10:30:38;;;;;;;6.80;4.05;;;21.50;99.90;;;;;;4993027;28;20105;-80
2023/09/15 10:33:06;;;;;;;6.47;3.28;;;21.50;99.90;;;;;;4992511;28;20421;-81
2023/09/15 10:35:33;;;;;;;8.43;4.03;;;21.50;99.90;;;;;;4960414;28;20078;-80
2023/09/15 10:38:03;;;;;;;6.90;3.63;;;21.50;99.90;;;;;;4979970;28;20047;-80
2023/09/15 10:40:49;;;;;;;5.78;2.97;;;21.60;99.90;;;;;;4963887;28;20122;-80
2023/09/15 10:43:18;;;;;;;7.63;3.10;;;21.70;99.90;;;;;;4986292;28;20074;-79
2023/09/15 10:45:58;;;;;;;10.10;3.00;;;21.70;99.90;;;;;;4992344;28;20131;-81
2023/09/15 10:48:39;;;;;;;5.13;2.88;;;22.30;99.90;;;;;;4954266;28;20080;-80
2023/09/15 10:51:08;;;;;;;10.55;2.80;;;21.90;99.90;;;;;;4995896;28;20054;-81
2023/09/15 10:53:44;;;;;;;4.93;2.78;;;22.00;99.90;;;;;;4993609;28;20074;-80
2023/09/15 10:56:12;;;;;;;4.72;2.75;;;21.90;99.90;;;;;;4963373;28;20743;-81
2023/09/15 10:58:38;;;;;;;6.05;2.42;;;22.00;99.90;;;;;;4995741;28;20042;-80
2023/09/15 11:01:05;;;;;;;6.05;2.53;;;22.00;99.90;;;;;;4992316;28;20097;-80
2023/09/15 11:03:33;;;;;;;6.50;2.83;;;21.80;99.90;;;;;;4961593;28;20651;-80
2023/09/15 11:05:58;;;;;;;9.23;3.33;;;22.00;99.90;;;;;;4962510;28;20071;-80
2023/09/15 11:08:25;;;;;;;4.68;2.45;;;22.00;99.90;;;;;;4992601;28;20163;-80
2023/09/15 11:11:07;;;;;;;6.10;2.95;;;21.80;99.90;;;;;;4976805;28;20042;-80
2023/09/15 11:13:33;;;;;;;6.10;2.60;;;22.00;99.90;;;;;;4992575;28;20045;-80
2023/09/15 11:15:59;;;;;;;6.10;2.88;;;22.00;99.90;;;;;;4992082;28;20038;-80
2023/09/15 11:18:26;;;;;;;6.18;2.38;;;22.30;99.90;;;;;;4992775;28;20050;-79
2023/09/15 11:20:52;;;;;;;8.48;4.15;;;22.10;99.90;;;;;;4991826;28;20518;-80
2023/09/15 11:23:18;;;;;;;5.03;2.10;;;22.10;99.90;;;;;;4992255;28;20051;-79
2023/09/15 11:25:44;;;;;;;9.23;2.47;;;22.20;99.90;;;;;;4992808;28;20121;-80
2023/09/15 11:28:12;;;;;;;5.30;2.15;;;22.40;99.90;;;;;;4991960;28;20046;-80
2023/09/15 11:30:38;;;;;;;5.80;2.90;;;22.70;99.90;;;;;;4993033;28;20093;-80
2023/09/15 11:33:06;;;;;;;4.10;1.90;;;22.20;99.90;;;;;;4990024;28;20027;-80
2023/09/15 11:35:33;;;;;;;7.72;2.50;;;22.40;99.90;;;;;;4957994;28;20047;-80
2023/09/15 11:37:59;;;;;;;4.80;2.40;;;20.60;99.90;;;;;;4991303;28;20085;-80
2023/09/15 11:40:25;;;;;;;4.80;2.03;;;22.20;99.90;;;;;;4976198;28;20038;-80
2023/09/15 11:42:55;;;;;;;4.13;2.30;;;22.20;99.90;;;;;;4960817;28;20442;-81
2023/09/15 11:45:26;;;;;;;4.68;2.45;;;22.10;99.90;;;;;;4960351;28;20419;-80
2023/09/15 11:47:53;;;;;;;8.18;2.63;;;22.30;99.90;;;;;;4975502;28;20039;-80
2023/09/15 11:50:20;;;;;;;4.03;2.17;;;23.20;99.90;;;;;;4959722;28;20046;-80
2023/09/15 11:52:46;;;;;;;6.25;2.78;;;22.40;99.90;;;;;;4991286;28;20406;-80
2023/09/15 11:55:20;;;;;;;6.70;2.50;;;22.70;99.90;;;;;;4960145;28;20170;-79
2023/09/15 11:57:46;;;;;;;5.25;2.55;;;22.80;99.90;;;;;;4991867;28;20650;-80
2023/09/15 12:00:15;;;;;;;4.10;2.20;;;22.80;99.90;;;;;;4992754;28;20079;-80
2023/09/15 12:02:48;;;;;;;6.88;2.45;;;22.80;99.90;;;;;;4992568;28;20035;-80
2023/09/15 12:05:15;;;;;;;6.05;2.30;;;22.90;99.90;;;;;;4992482;28;20043;-80
2023/09/15 12:07:43;;;;;;;4.10;2.08;;;22.60;99.90;;;;;;4959673;28;20066;-80
2023/09/15 12:10:15;;;;;;;7.70;2.28;;;23.10;99.90;;;;;;4960430;28;20085;-80
2023/09/15 12:12:42;;;;;;;6.20;2.60;;;23.10;99.90;;;;;;4979162;28;20571;-80
2023/09/15 12:15:08;;;;;;;5.05;2.40;;;23.10;99.90;;;;;;4964105;28;20065;-80
2023/09/15 12:17:36;;;;;;;8.23;2.45;;;23.20;99.90;;;;;;4963708;28;20100;-80
2023/09/15 12:20:06;;;;;;;4.50;2.28;;;23.50;99.90;;;;;;4981646;28;20113;-79
2023/09/15 12:22:32;;;;;;;6.57;2.47;;;23.00;99.90;;;;;;4975934;28;20131;-80
2023/09/15 12:24:59;;;;;;;6.45;2.20;;;22.90;99.90;;;;;;4977509;28;20043;-80
2023/09/15 12:27:29;;;;;;;5.95;2.47;;;23.00;99.90;;;;;;4993550;28;20034;-80
2023/09/15 12:29:56;;;;;;;5.90;2.58;;;23.20;99.90;;;;;;4980749;28;20362;-80
2023/09/15 12:32:32;;;;;;;6.60;2.47;;;23.30;99.90;;;;;;4987703;28;20058;-80
2023/09/15 12:34:58;;;;;;;4.43;2.40;;;23.20;99.90;;;;;;4963830;28;20045;-79
2023/09/15 12:37:27;;;;;;;3.83;1.95;;;23.40;99.90;;;;;;4981330;28;20039;-80
2023/09/15 12:39:53;;;;;;;4.05;2.20;;;23.20;99.90;;;;;;4982547;28;20050;-80
2023/09/15 12:42:19;;;;;;;7.65;2.28;;;23.50;99.90;;;;;;4997074;28;20035;-80
2023/09/15 12:44:45;;;;;;;6.75;2.30;;;23.50;99.90;;;;;;4983261;28;20038;-80
2023/09/15 12:47:11;;;;;;;3.60;2.53;;;23.30;99.90;;;;;;4992717;28;20039;-80
2023/09/15 12:49:37;;;;;;;8.70;2.78;;;23.40;99.90;;;;;;4960165;28;20035;-80
2023/09/15 12:52:03;;;;;;;7.43;2.30;;;24.60;99.90;;;;;;4978727;28;20043;-80
2023/09/15 12:54:29;;;;;;;5.75;2.67;;;23.70;99.90;;;;;;4980061;28;20035;-80
2023/09/15 12:56:56;;;;;;;7.03;3.15;;;23.60;99.90;;;;;;4996516;28;20102;-80
2023/09/15 12:59:26;;;;;;;7.65;2.33;;;23.70;99.90;;;;;;4980714;28;20043;-80